DYR weather

Dyersburg Regional Airport
Dyersburg, Tennessee, United States

Public forecast

Using degrees Fahrenheit for public forecast. Weather courtesy of forecast.io.

METAR (pilot weather report)

Retrieved 2019/05/25 19:56 UTC (2 hours ago):

KDYR 251956Z AUTO 24008KT 10SM CLR 31/21 A3010 RMK AO2 SLP202 T03110206 PNO $

TAF (pilot weather forecast)

Closest forecast is McKellar-Sipes Regional Airport, 33.8 nm (62.6 km) SE. Retrieved 2019/05/25 18:36 UTC (3 hours ago):

TAF KMKL 251733Z 2518/2618 26012KT P6SM SKC FM260100 18002KT P6SM SKC FM261500 23011G15KT P6SM FEW040